Time;durP1;ratioP1;P1;durP2;ratioP2;P2;SDS_P1;SDS_P2;PMS_P1;PMS_P2;Temp;Humidity;BMP_temperature;BMP_pressure;BME280_temperature;BME280_humidity;BME280_pressure;Samples;Min_cycle;Max_cycle;Signal;HPM_P1;HPM_P2
2022/11/29 00:01:22;;;;;;;9.90;7.27;;;5.40;97.30;;;;;;5056700;28;20453;-79
2022/11/29 00:03:48;;;;;;;8.23;3.20;;;5.40;97.30;;;;;;5056428;28;20516;-79
2022/11/29 00:06:16;;;;;;;19.27;5.37;;;5.30;97.30;;;;;;5056401;28;20413;-79
2022/11/29 00:08:42;;;;;;;7.13;3.87;;;5.30;97.30;;;;;;5069586;28;20459;-79
2022/11/29 00:11:12;;;;;;;5.17;4.87;;;5.30;97.30;;;;;;5076299;28;20487;-79
2022/11/29 00:13:38;;;;;;;3.07;2.80;;;5.20;97.30;;;;;;5060482;28;20464;-79
2022/11/29 00:16:06;;;;;;;17.30;4.27;;;5.20;97.30;;;;;;5055363;28;20406;-79
2022/11/29 00:18:32;;;;;;;7.30;4.20;;;5.20;97.30;;;;;;5055205;28;20433;-79
2022/11/29 00:20:58;;;;;;;12.20;5.90;;;5.20;97.30;;;;;;5055626;28;20447;-79
2022/11/29 00:23:23;;;;;;;18.73;5.90;;;5.10;97.30;;;;;;5069710;28;20453;-79
2022/11/29 00:25:49;;;;;;;9.40;7.17;;;5.10;97.30;;;;;;5071399;28;20179;-79
2022/11/29 00:28:14;;;;;;;28.07;4.40;;;5.10;97.30;;;;;;5071529;28;20694;-79
2022/11/29 00:30:40;;;;;;;12.53;8.30;;;5.10;97.30;;;;;;5053728;28;20258;-79
2022/11/29 00:33:06;;;;;;;5.03;3.40;;;5.10;97.30;;;;;;5055179;28;20226;-79
2022/11/29 00:35:31;;;;;;;3.90;2.93;;;5.10;97.30;;;;;;5054137;28;20175;-79
2022/11/29 00:37:57;;;;;;;5.17;4.87;;;5.00;97.30;;;;;;5055985;28;20194;-79
2022/11/29 00:40:23;;;;;;;5.00;3.20;;;5.00;97.30;;;;;;5068339;28;20645;-80
2022/11/29 00:42:49;;;;;;;3.00;2.80;;;5.00;97.30;;;;;;5077632;28;20438;-80
2022/11/29 00:45:14;;;;;;;7.83;5.60;;;5.00;97.30;;;;;;5067862;28;20175;-80
2022/11/29 00:47:40;;;;;;;8.57;4.83;;;4.90;97.30;;;;;;5059988;28;20464;-80
2022/11/29 00:50:06;;;;;;;3.20;3.00;;;4.90;97.30;;;;;;5057682;28;20276;-78
2022/11/29 00:52:32;;;;;;;5.40;3.53;;;4.90;97.30;;;;;;5078032;28;20314;-80
2022/11/29 00:54:57;;;;;;;8.47;4.50;;;4.90;97.30;;;;;;5077444;28;20956;-79
2022/11/29 00:57:23;;;;;;;5.50;4.47;;;4.90;97.30;;;;;;5061062;28;20305;-80
2022/11/29 00:59:48;;;;;;;15.40;5.83;;;4.90;97.30;;;;;;5058827;28;20171;-80
2022/11/29 01:02:14;;;;;;;8.43;5.60;;;4.90;97.30;;;;;;5069006;28;20188;-80
2022/11/29 01:04:40;;;;;;;7.23;3.93;;;4.90;97.30;;;;;;5067182;28;20178;-79
2022/11/29 01:07:05;;;;;;;3.70;2.23;;;5.00;97.30;;;;;;5058001;28;20264;-80
2022/11/29 01:09:31;;;;;;;8.97;3.43;;;5.00;97.30;;;;;;5069764;28;20183;-79
2022/11/29 01:11:56;;;;;;;11.40;4.00;;;4.90;97.30;;;;;;5057257;28;20175;-79
2022/11/29 01:14:22;;;;;;;8.10;4.90;;;4.90;97.30;;;;;;5056947;28;20199;-79
2022/11/29 01:16:48;;;;;;;3.83;2.20;;;5.00;97.30;;;;;;5075150;28;20183;-79
2022/11/29 01:19:13;;;;;;;6.20;3.47;;;5.00;97.30;;;;;;5064331;28;20265;-79
2022/11/29 01:21:40;;;;;;;6.00;5.00;;;5.00;97.30;;;;;;5081171;28;20183;-79
2022/11/29 01:24:05;;;;;;;5.70;4.30;;;4.90;97.30;;;;;;5058250;28;20657;-80
2022/11/29 01:26:31;;;;;;;6.00;3.73;;;5.00;97.30;;;;;;5055882;28;20420;-79
2022/11/29 01:28:58;;;;;;;7.70;4.07;;;5.00;97.30;;;;;;5055716;28;20739;-79
2022/11/29 01:31:27;;;;;;;7.50;5.37;;;5.00;97.30;;;;;;5054885;28;20274;-79
2022/11/29 01:33:59;;;;;;;4.57;2.97;;;5.00;97.30;;;;;;5067507;28;20615;-79
2022/11/29 01:36:25;;;;;;;4.40;3.20;;;5.00;97.30;;;;;;5054392;28;20417;-79
2022/11/29 01:38:51;;;;;;;12.33;4.30;;;4.90;97.30;;;;;;5054683;28;20679;-79
2022/11/29 01:41:20;;;;;;;6.07;3.93;;;4.90;97.30;;;;;;5054685;28;20679;-79
2022/11/29 01:44:00;;;;;;;11.60;6.10;;;4.90;97.30;;;;;;5055702;28;20460;-79
2022/11/29 01:46:35;;;;;;;8.60;5.33;;;4.90;97.30;;;;;;5057058;28;20779;-79
2022/11/29 01:49:07;;;;;;;5.20;3.37;;;5.00;97.30;;;;;;5056675;28;20518;-79
2022/11/29 01:51:34;;;;;;;7.63;5.37;;;5.00;97.30;;;;;;5061085;28;20431;-79
2022/11/29 01:54:01;;;;;;;5.83;3.60;;;5.00;97.30;;;;;;5074728;28;20991;-79
2022/11/29 01:56:28;;;;;;;6.47;3.80;;;5.00;97.30;;;;;;5074803;28;20424;-79
2022/11/29 01:58:54;;;;;;;3.87;3.63;;;5.10;97.30;;;;;;5057969;28;20478;-79
2022/11/29 02:01:20;;;;;;;4.73;4.43;;;5.20;97.30;;;;;;5068507;28;20934;-79
2022/11/29 02:03:46;;;;;;;10.63;5.70;;;5.20;97.30;;;;;;5053763;28;20480;-79
2022/11/29 02:06:12;;;;;;;5.67;3.47;;;5.10;97.30;;;;;;5056337;28;20179;-79
2022/11/29 02:08:40;;;;;;;8.50;5.30;;;5.10;97.30;;;;;;5055894;28;20209;-79
2022/11/29 02:11:35;;;;;;;3.17;2.97;;;5.20;97.30;;;;;;5063541;28;20457;-79
2022/11/29 02:14:07;;;;;;;3.30;3.10;;;5.30;97.30;;;;;;5057494;28;20469;-79
2022/11/29 02:16:43;;;;;;;7.90;4.20;;;5.50;97.30;;;;;;5055615;28;20421;-79
2022/11/29 02:19:18;;;;;;;2.83;2.43;;;5.60;97.30;;;;;;5066968;28;20482;-79
2022/11/29 02:22:08;;;;;;;3.83;3.63;;;5.50;97.30;;;;;;5056558;28;20846;-79
2022/11/29 02:25:08;;;;;;;9.60;5.50;;;5.40;97.30;;;;;;5062560;28;20532;-79
2022/11/29 02:27:56;;;;;;;9.27;4.47;;;5.30;97.30;;;;;;5063249;28;20514;-79
2022/11/29 02:30:40;;;;;;;7.30;3.57;;;5.20;97.30;;;;;;5054876;28;20460;-79
2022/11/29 02:33:27;;;;;;;3.17;2.70;;;5.20;97.30;;;;;;5057926;28;20579;-79
2022/11/29 02:36:12;;;;;;;4.30;3.97;;;5.20;97.30;;;;;;5048435;28;20413;-79
2022/11/29 02:38:54;;;;;;;7.33;5.67;;;5.20;97.30;;;;;;5056674;28;20489;-79
2022/11/29 02:41:43;;;;;;;21.43;4.57;;;5.20;97.30;;;;;;5056569;28;20832;-80
2022/11/29 02:44:27;;;;;;;6.20;5.27;;;5.30;97.30;;;;;;5023452;28;21050;-80
2022/11/29 02:47:08;;;;;;;8.37;3.83;;;5.30;97.30;;;;;;5048039;28;20746;-80
2022/11/29 02:49:55;;;;;;;5.97;3.40;;;5.30;97.30;;;;;;5071822;28;20830;-80
2022/11/29 02:52:47;;;;;;;9.17;5.80;;;5.30;97.30;;;;;;5072468;28;20424;-80
2022/11/29 02:55:48;;;;;;;9.23;4.90;;;5.20;97.30;;;;;;5053589;28;20953;-79
2022/11/29 02:58:44;;;;;;;3.07;2.87;;;5.20;97.30;;;;;;5058631;28;20420;-79
2022/11/29 03:01:32;;;;;;;4.57;4.30;;;5.20;97.30;;;;;;5057088;28;20425;-80
2022/11/29 03:04:27;;;;;;;3.90;3.70;;;5.20;97.30;;;;;;5071546;28;20506;-79
2022/11/29 03:06:53;;;;;;;16.53;5.70;;;5.10;97.30;;;;;;5067933;28;20447;-79
2022/11/29 03:09:27;;;;;;;9.10;3.20;;;5.10;97.30;;;;;;5055268;28;20429;-79
2022/11/29 03:12:00;;;;;;;7.27;3.20;;;5.10;97.30;;;;;;5056181;28;20234;-79
2022/11/29 03:14:37;;;;;;;9.70;3.83;;;5.10;97.30;;;;;;5053600;28;20865;-79
2022/11/29 03:17:14;;;;;;;4.40;2.27;;;5.10;97.30;;;;;;5064817;28;20425;-79
2022/11/29 03:20:12;;;;;;;11.20;6.07;;;5.10;97.30;;;;;;5064616;28;20511;-78
2022/11/29 03:22:57;;;;;;;3.63;3.43;;;5.10;97.30;;;;;;5032454;28;20812;-79
2022/11/29 03:25:37;;;;;;;3.83;3.67;;;5.10;97.30;;;;;;5069893;28;20481;-79
2022/11/29 03:28:29;;;;;;;8.53;3.63;;;5.10;97.30;;;;;;5061979;28;20807;-79
2022/11/29 03:31:05;;;;;;;8.10;3.20;;;5.20;97.30;;;;;;5053900;28;20506;-79
2022/11/29 03:33:56;;;;;;;7.20;3.07;;;5.10;97.30;;;;;;5053260;28;21008;-79
2022/11/29 03:36:50;;;;;;;7.10;5.23;;;5.10;97.30;;;;;;5074074;28;20409;-79
2022/11/29 03:39:19;;;;;;;4.10;3.63;;;5.10;97.30;;;;;;5091717;28;20466;-79
2022/11/29 03:41:54;;;;;;;4.63;3.53;;;5.10;97.30;;;;;;5082335;28;20405;-79
2022/11/29 03:44:32;;;;;;;4.83;3.30;;;5.10;97.30;;;;;;5059517;28;20485;-79
2022/11/29 03:47:16;;;;;;;4.00;3.30;;;5.10;97.30;;;;;;5061243;28;20421;-79
2022/11/29 03:49:53;;;;;;;11.13;6.00;;;5.20;97.30;;;;;;5053355;28;20817;-79
2022/11/29 03:52:53;;;;;;;9.10;4.37;;;5.20;97.30;;;;;;5070475;28;20801;-79
2022/11/29 03:55:18;;;;;;;5.27;4.03;;;5.20;97.30;;;;;;5060472;28;20787;-79
2022/11/29 03:58:04;;;;;;;3.93;3.73;;;5.20;97.30;;;;;;5060150;28;20428;-79
2022/11/29 04:01:09;;;;;;;31.60;5.80;;;5.20;97.30;;;;;;5056162;28;20180;-79
2022/11/29 04:03:56;;;;;;;6.17;5.70;;;5.20;97.30;;;;;;5063650;28;20489;-79
2022/11/29 04:06:59;;;;;;;5.70;3.77;;;5.30;97.30;;;;;;5059429;28;21009;-79
2022/11/29 04:09:55;;;;;;;2.23;2.03;;;5.30;97.30;;;;;;5048682;28;20432;-79
2022/11/29 04:12:34;;;;;;;6.90;4.70;;;5.20;97.30;;;;;;5047757;28;20410;-79
2022/11/29 04:15:20;;;;;;;4.10;3.90;;;5.20;97.30;;;;;;5060403;28;20781;-79
2022/11/29 04:18:16;;;;;;;4.87;2.97;;;5.20;97.30;;;;;;5077378;28;20418;-79
2022/11/29 04:21:17;;;;;;;1.83;1.73;;;5.20;97.30;;;;;;5059153;28;20417;-79
2022/11/29 04:24:20;;;;;;;4.40;2.77;;;5.20;97.30;;;;;;5000277;28;20477;-80
2022/11/29 04:26:57;;;;;;;6.80;2.87;;;5.20;97.30;;;;;;5058376;28;20421;-79
2022/11/29 04:29:46;;;;;;;6.20;4.20;;;5.20;97.30;;;;;;5071939;28;20416;-79
2022/11/29 04:32:12;;;;;;;3.70;3.20;;;5.20;97.30;;;;;;5075027;28;20405;-79
2022/11/29 04:35:04;;;;;;;6.60;3.10;;;5.20;97.30;;;;;;5061456;28;20800;-80
2022/11/29 04:38:12;;;;;;;3.73;2.80;;;5.20;97.30;;;;;;5059037;28;20175;-79
2022/11/29 04:40:56;;;;;;;3.53;3.33;;;5.20;97.30;;;;;;5063003;28;20997;-79
2022/11/29 04:43:27;;;;;;;4.67;4.30;;;5.20;97.30;;;;;;5057353;28;20456;-79
2022/11/29 04:46:02;;;;;;;4.50;4.23;;;5.20;97.30;;;;;;5057059;28;20970;-79
2022/11/29 04:49:06;;;;;;;4.37;2.80;;;5.20;97.30;;;;;;5056276;28;20495;-79
2022/11/29 04:51:50;;;;;;;3.40;3.20;;;5.30;97.30;;;;;;5020321;28;20600;-79
2022/11/29 04:54:24;;;;;;;12.13;4.63;;;5.40;97.30;;;;;;5074682;28;20477;-79
2022/11/29 04:57:18;;;;;;;7.77;3.93;;;5.40;97.30;;;;;;5057493;28;20466;-79
2022/11/29 04:59:54;;;;;;;5.47;5.17;;;5.40;97.30;;;;;;5078927;28;20436;-79
2022/11/29 05:02:35;;;;;;;6.20;3.77;;;5.40;97.30;;;;;;5059380;28;20707;-79
2022/11/29 05:05:36;;;;;;;4.47;4.13;;;5.40;97.30;;;;;;5070947;28;20440;-79
2022/11/29 05:08:30;;;;;;;8.80;3.83;;;5.30;97.30;;;;;;5057021;28;21091;-80
2022/11/29 05:11:12;;;;;;;5.50;4.70;;;5.30;97.30;;;;;;5056036;28;20409;-79
2022/11/29 05:13:44;;;;;;;2.60;2.40;;;5.30;97.30;;;;;;5054825;28;20798;-79
2022/11/29 05:16:21;;;;;;;5.07;2.70;;;5.20;97.30;;;;;;5054274;28;20925;-79
2022/11/29 05:19:27;;;;;;;2.90;2.70;;;5.20;97.30;;;;;;5036292;28;20406;-79
2022/11/29 05:22:07;;;;;;;11.70;3.70;;;5.10;97.30;;;;;;5054939;28;20518;-79
2022/11/29 05:24:51;;;;;;;4.13;3.63;;;5.10;97.30;;;;;;5035491;28;20409;-78
2022/11/29 05:27:22;;;;;;;8.43;3.70;;;5.10;97.30;;;;;;5035919;28;20445;-79
2022/11/29 05:30:12;;;;;;;8.50;5.53;;;5.10;97.30;;;;;;5036776;28;20403;-79
2022/11/29 05:33:22;;;;;;;12.67;4.90;;;5.10;97.30;;;;;;5036613;28;20442;-79
2022/11/29 05:36:26;;;;;;;5.30;4.37;;;5.10;97.30;;;;;;5036982;28;20401;-79
2022/11/29 05:39:37;;;;;;;8.30;4.10;;;5.10;97.30;;;;;;5005856;28;20407;-79
2022/11/29 05:42:33;;;;;;;2.33;2.13;;;5.10;97.30;;;;;;5003815;28;20410;-79
2022/11/29 05:45:21;;;;;;;5.40;2.60;;;5.10;97.30;;;;;;5036632;28;20414;-79
2022/11/29 05:48:12;;;;;;;7.10;3.67;;;5.10;97.30;;;;;;5036198;28;20512;-80
2022/11/29 05:51:10;;;;;;;5.20;3.87;;;5.10;97.30;;;;;;5036665;28;20987;-79
2022/11/29 05:53:51;;;;;;;7.70;3.63;;;5.10;97.30;;;;;;5037852;28;20474;-79
2022/11/29 05:56:41;;;;;;;6.67;4.00;;;5.10;97.30;;;;;;5037967;28;20755;-79
2022/11/29 05:59:16;;;;;;;3.37;2.70;;;5.10;97.30;;;;;;5036430;28;20421;-79
2022/11/29 06:01:48;;;;;;;5.50;3.93;;;5.00;97.30;;;;;;5035030;28;20410;-79
2022/11/29 06:04:21;;;;;;;3.33;3.20;;;5.10;97.30;;;;;;5036514;28;20548;-79
2022/11/29 06:07:13;;;;;;;3.70;3.50;;;5.10;97.30;;;;;;5033530;28;20483;-79
2022/11/29 06:09:56;;;;;;;12.80;6.37;;;5.00;97.30;;;;;;5032381;28;20415;-78
2022/11/29 06:12:23;;;;;;;3.50;3.07;;;5.10;97.30;;;;;;5034032;28;20955;-78
2022/11/29 06:15:05;;;;;;;14.53;4.70;;;5.00;97.30;;;;;;5039128;28;20414;-78
2022/11/29 06:17:40;;;;;;;5.77;3.00;;;5.00;97.30;;;;;;5033682;28;20414;-78
2022/11/29 06:20:41;;;;;;;10.43;6.00;;;5.00;97.30;;;;;;5035069;28;20409;-79
2022/11/29 06:23:27;;;;;;;3.00;2.80;;;5.00;97.30;;;;;;5048655;28;20468;-79
2022/11/29 06:26:28;;;;;;;4.57;2.80;;;5.00;97.30;;;;;;5053075;28;20908;-79
2022/11/29 06:29:19;;;;;;;8.43;2.83;;;5.10;97.30;;;;;;5030804;28;21013;-79
2022/11/29 06:31:51;;;;;;;13.50;6.40;;;5.10;97.30;;;;;;5051573;28;20414;-78
2022/11/29 06:35:02;;;;;;;11.03;3.17;;;5.10;97.30;;;;;;5052587;28;20438;-79
2022/11/29 06:37:40;;;;;;;3.87;3.67;;;5.10;97.30;;;;;;5034178;28;20420;-79
2022/11/29 06:40:11;;;;;;;2.77;2.60;;;5.10;97.30;;;;;;5052512;28;20418;-79
2022/11/29 06:42:36;;;;;;;18.13;5.27;;;5.10;97.30;;;;;;5052888;28;20430;-79
2022/11/29 06:45:02;;;;;;;5.90;2.67;;;5.10;97.30;;;;;;5037125;28;20430;-79
2022/11/29 06:47:57;;;;;;;4.83;3.63;;;5.10;97.30;;;;;;5036028;28;20306;-79
2022/11/29 06:50:43;;;;;;;5.00;2.83;;;5.10;97.30;;;;;;5049035;28;20481;-79
2022/11/29 06:53:37;;;;;;;13.57;4.77;;;5.10;97.30;;;;;;5033721;28;20430;-79
2022/11/29 06:56:37;;;;;;;3.40;3.20;;;5.10;97.30;;;;;;5050289;28;20480;-78
2022/11/29 06:59:20;;;;;;;3.33;2.67;;;5.00;97.30;;;;;;5033473;28;20709;-78
2022/11/29 07:02:00;;;;;;;11.63;6.20;;;5.10;97.30;;;;;;5033445;28;20433;-78
2022/11/29 07:04:47;;;;;;;4.27;2.60;;;5.00;97.30;;;;;;5050288;28;20764;-79
2022/11/29 07:07:17;;;;;;;5.57;3.23;;;5.00;97.30;;;;;;5033080;28;20461;-79
2022/11/29 07:09:45;;;;;;;9.53;2.97;;;5.00;97.30;;;;;;5049862;28;20403;-79
2022/11/29 07:12:11;;;;;;;3.37;3.17;;;5.00;97.30;;;;;;5053010;28;20820;-79
2022/11/29 07:14:37;;;;;;;4.50;4.20;;;5.00;97.30;;;;;;5052910;28;20436;-78
2022/11/29 07:17:18;;;;;;;5.37;4.17;;;5.00;97.30;;;;;;5052933;28;20413;-78
2022/11/29 07:20:05;;;;;;;1.63;1.53;;;5.00;97.30;;;;;;5052917;28;20413;-78
2022/11/29 07:23:01;;;;;;;7.80;5.20;;;5.10;97.30;;;;;;5054092;28;20468;-79
2022/11/29 07:25:55;;;;;;;9.17;5.53;;;5.10;97.30;;;;;;5054701;28;20421;-79
2022/11/29 07:28:33;;;;;;;7.30;4.23;;;5.10;97.30;;;;;;5055537;28;20456;-79
2022/11/29 07:31:16;;;;;;;8.47;3.27;;;5.10;97.30;;;;;;5040522;28;20429;-78
2022/11/29 07:34:21;;;;;;;3.43;3.23;;;5.20;97.30;;;;;;5037178;28;20502;-79
2022/11/29 07:37:13;;;;;;;8.73;5.30;;;5.20;97.30;;;;;;5037541;28;20938;-79
2022/11/29 07:39:38;;;;;;;7.17;4.50;;;5.20;97.30;;;;;;5049496;28;20939;-80
2022/11/29 07:42:19;;;;;;;9.20;5.00;;;5.20;97.30;;;;;;5057853;28;20425;-82
2022/11/29 07:45:09;;;;;;;7.17;4.17;;;5.20;97.30;;;;;;5074433;28;20206;-81
2022/11/29 07:47:35;;;;;;;6.80;2.03;;;5.20;97.30;;;;;;5072221;28;20453;-80
2022/11/29 07:50:00;;;;;;;10.80;4.10;;;5.30;97.30;;;;;;5070001;28;20522;-80
2022/11/29 07:52:27;;;;;;;7.23;3.17;;;5.30;97.30;;;;;;5061748;28;20191;-80
2022/11/29 07:54:52;;;;;;;6.30;4.20;;;5.30;97.30;;;;;;5059290;28;20269;-80
2022/11/29 07:57:18;;;;;;;7.20;4.00;;;5.30;97.30;;;;;;5059509;28;21085;-79
2022/11/29 07:59:43;;;;;;;12.00;4.40;;;5.30;97.30;;;;;;5061430;28;20183;-77
2022/11/29 08:02:10;;;;;;;8.20;3.73;;;5.30;97.30;;;;;;5077251;28;20183;-80
2022/11/29 08:04:41;;;;;;;4.83;3.07;;;5.40;97.30;;;;;;5079018;28;20179;-79
2022/11/29 08:07:07;;;;;;;2.70;2.60;;;5.40;97.30;;;;;;5075959;28;20435;-80
2022/11/29 08:09:33;;;;;;;6.50;3.40;;;5.40;97.30;;;;;;5059987;28;20489;-78
2022/11/29 08:11:59;;;;;;;5.73;3.73;;;5.40;97.30;;;;;;5061772;28;20928;-81
2022/11/29 08:14:31;;;;;;;5.10;3.07;;;5.50;97.30;;;;;;5064149;28;20226;-81
2022/11/29 08:16:57;;;;;;;3.90;2.70;;;5.50;97.30;;;;;;5077836;28;20491;-78
2022/11/29 08:19:23;;;;;;;3.80;2.77;;;5.50;97.30;;;;;;5061629;28;20765;-80
2022/11/29 08:21:50;;;;;;;10.60;4.60;;;5.50;97.30;;;;;;5078712;28;20217;-77
2022/11/29 08:24:16;;;;;;;4.10;2.90;;;5.50;97.30;;;;;;5080010;28;20421;-78
2022/11/29 08:26:41;;;;;;;11.73;5.23;;;5.60;97.30;;;;;;5060691;28;20403;-82
2022/11/29 08:29:07;;;;;;;2.77;1.80;;;5.60;97.30;;;;;;5062308;28;20199;-77
2022/11/29 08:31:32;;;;;;;4.87;4.57;;;5.60;97.30;;;;;;5062303;28;20174;-80
2022/11/29 08:33:58;;;;;;;8.50;3.27;;;5.60;97.30;;;;;;5061741;28;20262;-81
2022/11/29 08:36:25;;;;;;;4.13;3.90;;;5.70;97.30;;;;;;5077287;28;20176;-81
2022/11/29 08:38:51;;;;;;;9.90;3.60;;;5.70;97.30;;;;;;5041771;28;20637;-80
2022/11/29 08:41:16;;;;;;;2.37;2.17;;;5.70;97.30;;;;;;5059710;28;20494;-80
2022/11/29 08:43:43;;;;;;;5.13;4.87;;;5.80;97.30;;;;;;5062653;28;20243;-80
2022/11/29 08:46:09;;;;;;;7.30;3.10;;;5.80;97.30;;;;;;5081052;28;20185;-81
2022/11/29 08:48:35;;;;;;;10.63;4.00;;;5.90;97.30;;;;;;5099010;28;20518;-80
2022/11/29 08:51:02;;;;;;;7.90;5.23;;;5.90;97.30;;;;;;5099819;28;20784;-79
2022/11/29 08:53:40;;;;;;;2.27;2.07;;;6.00;97.30;;;;;;5082149;28;20998;-80
2022/11/29 08:56:11;;;;;;;3.47;3.33;;;6.00;97.30;;;;;;5081370;28;20431;-82
2022/11/29 08:58:40;;;;;;;12.50;6.10;;;6.10;97.30;;;;;;5077699;28;20460;-84
2022/11/29 09:01:15;;;;;;;4.80;3.57;;;6.10;97.30;;;;;;5060403;28;20938;-77
2022/11/29 09:04:01;;;;;;;6.03;3.43;;;6.10;97.30;;;;;;5077534;28;20424;-78
2022/11/29 09:06:33;;;;;;;7.00;3.70;;;6.20;97.30;;;;;;5058599;28;20418;-79
2022/11/29 09:09:00;;;;;;;21.20;4.57;;;6.20;97.30;;;;;;5058529;28;20480;-81
2022/11/29 09:11:27;;;;;;;7.10;5.87;;;6.30;97.30;;;;;;5058494;28;20401;-83
2022/11/29 09:13:57;;;;;;;8.50;4.47;;;6.30;97.30;;;;;;5084220;28;20428;-78
2022/11/29 09:16:26;;;;;;;7.07;4.30;;;6.40;97.30;;;;;;5058663;28;20417;-79
2022/11/29 09:18:58;;;;;;;8.30;4.30;;;6.40;97.30;;;;;;5040598;28;20417;-79
2022/11/29 09:21:26;;;;;;;5.33;3.67;;;6.40;97.30;;;;;;5059724;28;20930;-81
2022/11/29 09:23:57;;;;;;;4.60;4.30;;;6.40;97.30;;;;;;5053598;28;20507;-81
2022/11/29 09:26:28;;;;;;;10.80;5.00;;;6.40;97.30;;;;;;5060710;28;20415;-80
2022/11/29 09:28:57;;;;;;;5.13;2.87;;;6.40;97.30;;;;;;5057463;28;20472;-81
2022/11/29 09:31:26;;;;;;;9.73;4.27;;;6.40;97.30;;;;;;5057390;28;20417;-81
2022/11/29 09:33:59;;;;;;;5.07;2.67;;;6.50;97.30;;;;;;5054504;28;20455;-80
2022/11/29 09:36:25;;;;;;;8.40;5.30;;;6.50;97.30;;;;;;5066704;28;20444;-78
2022/11/29 09:38:57;;;;;;;9.23;4.70;;;6.50;97.30;;;;;;5071399;28;20430;-77
2022/11/29 09:41:48;;;;;;;4.23;2.87;;;6.50;97.30;;;;;;5060477;28;20483;-79
2022/11/29 09:44:38;;;;;;;4.63;3.03;;;6.50;97.30;;;;;;5066629;28;20442;-78
2022/11/29 09:47:25;;;;;;;3.50;3.30;;;6.50;97.30;;;;;;5060615;28;20508;-80
2022/11/29 09:50:06;;;;;;;7.03;3.27;;;6.50;97.30;;;;;;5064617;28;20449;-81
2022/11/29 09:52:47;;;;;;;7.90;4.60;;;6.50;97.30;;;;;;5065726;28;20531;-81
2022/11/29 09:55:50;;;;;;;5.17;3.47;;;6.50;97.30;;;;;;5059953;28;21064;-80
2022/11/29 09:58:25;;;;;;;14.00;5.33;;;6.60;97.30;;;;;;5049874;28;20649;-80
2022/11/29 10:00:57;;;;;;;5.23;4.13;;;6.60;97.30;;;;;;5055957;28;20439;-78
2022/11/29 10:03:35;;;;;;;5.13;4.40;;;6.60;97.30;;;;;;5055109;28;20436;-79
2022/11/29 10:06:10;;;;;;;4.57;3.30;;;6.60;97.30;;;;;;5053326;28;20511;-79
2022/11/29 10:08:40;;;;;;;10.47;5.70;;;6.60;97.30;;;;;;5061476;28;20634;-80
2022/11/29 10:11:22;;;;;;;4.20;3.33;;;6.60;97.30;;;;;;5061634;28;21105;-80
2022/11/29 10:13:54;;;;;;;10.43;6.77;;;6.60;97.30;;;;;;5065890;28;20853;-80
2022/11/29 10:16:22;;;;;;;5.90;3.37;;;6.70;97.30;;;;;;5065186;28;20417;-80
2022/11/29 10:19:01;;;;;;;7.10;3.07;;;6.70;97.30;;;;;;5073644;28;20776;-78
2022/11/29 10:21:34;;;;;;;7.50;5.10;;;6.70;97.30;;;;;;5055595;28;20941;-79
2022/11/29 10:24:13;;;;;;;4.10;3.20;;;6.80;97.30;;;;;;5044495;28;20442;-79
2022/11/29 10:26:47;;;;;;;4.00;3.70;;;6.80;97.30;;;;;;5049546;28;20410;-78
2022/11/29 10:29:14;;;;;;;5.43;2.80;;;6.80;97.30;;;;;;5052413;28;20446;-78
2022/11/29 10:31:45;;;;;;;5.23;4.77;;;6.80;97.30;;;;;;5057730;28;20413;-79
2022/11/29 10:34:17;;;;;;;3.87;2.70;;;6.90;97.30;;;;;;5049529;28;20425;-79
2022/11/29 10:37:01;;;;;;;13.63;3.20;;;6.90;97.30;;;;;;5045190;28;20785;-78
2022/11/29 10:39:47;;;;;;;6.53;4.73;;;6.90;97.30;;;;;;5042578;28;20497;-79
2022/11/29 10:45:29;;;;;;;9.70;3.53;;;7.00;97.30;;;;;;5072815;28;20764;-78
2022/11/29 10:48:03;;;;;;;11.67;3.90;;;7.00;97.30;;;;;;5065563;28;20448;-79
2022/11/29 10:50:33;;;;;;;5.23;4.37;;;7.00;97.30;;;;;;5064108;28;20449;-78
2022/11/29 10:53:05;;;;;;;6.97;4.63;;;7.10;97.30;;;;;;5066834;28;20559;-79
2022/11/29 10:55:37;;;;;;;7.40;4.80;;;7.00;97.30;;;;;;5052553;28;20413;-79
2022/11/29 10:58:18;;;;;;;3.80;3.60;;;7.00;97.30;;;;;;5051505;28;20503;-79
2022/11/29 11:00:52;;;;;;;4.97;2.87;;;7.10;97.30;;;;;;5051015;28;20413;-78
2022/11/29 11:03:51;;;;;;;6.23;4.57;;;7.10;97.30;;;;;;5063778;28;20512;-79
2022/11/29 11:06:19;;;;;;;6.67;4.60;;;7.10;97.30;;;;;;5036056;28;20414;-79
2022/11/29 11:08:52;;;;;;;2.93;2.73;;;7.10;97.30;;;;;;5066501;28;20457;-78
2022/11/29 11:11:30;;;;;;;5.70;3.80;;;7.10;97.30;;;;;;5079380;28;20466;-79
2022/11/29 11:14:02;;;;;;;7.10;3.87;;;7.20;97.30;;;;;;5055918;28;20480;-79
2022/11/29 11:16:28;;;;;;;5.20;4.93;;;7.20;97.30;;;;;;5058358;28;20857;-79
2022/11/29 11:18:54;;;;;;;4.90;2.87;;;7.20;97.30;;;;;;5059021;28;20471;-79
2022/11/29 11:21:24;;;;;;;18.23;5.10;;;7.30;97.30;;;;;;5067560;28;20447;-79
2022/11/29 11:23:58;;;;;;;8.57;5.80;;;7.30;97.30;;;;;;5077636;28;20214;-79
2022/11/29 11:26:25;;;;;;;3.90;3.43;;;7.30;97.30;;;;;;5060069;28;21022;-79
2022/11/29 11:29:01;;;;;;;3.77;3.63;;;7.30;97.30;;;;;;5058188;28;20533;-79
2022/11/29 11:31:39;;;;;;;7.70;5.40;;;7.30;97.30;;;;;;5054748;28;20415;-78
2022/11/29 11:34:25;;;;;;;4.23;2.80;;;7.40;97.30;;;;;;5058562;28;21030;-79
2022/11/29 11:37:12;;;;;;;4.93;2.50;;;7.40;97.30;;;;;;5058432;28;20427;-79
2022/11/29 11:39:38;;;;;;;5.07;3.40;;;7.40;97.30;;;;;;5052769;28;20414;-79
2022/11/29 11:44:52;;;;;;;2.97;2.77;;;7.40;97.30;;;;;;5087602;28;20439;-79
2022/11/29 11:47:23;;;;;;;5.83;5.13;;;7.50;97.30;;;;;;5060495;28;20405;-79
2022/11/29 11:50:03;;;;;;;8.87;4.40;;;7.50;97.30;;;;;;5067189;28;20467;-79
2022/11/29 11:53:07;;;;;;;4.00;2.90;;;7.50;97.30;;;;;;5067599;28;21030;-78
2022/11/29 11:55:39;;;;;;;3.13;2.90;;;7.50;97.30;;;;;;5038791;28;20424;-78
2022/11/29 11:58:11;;;;;;;4.20;3.43;;;7.50;97.30;;;;;;5059303;28;20515;-79
2022/11/29 12:00:50;;;;;;;3.67;3.50;;;7.50;97.30;;;;;;5078061;28;20416;-79
2022/11/29 12:03:44;;;;;;;5.23;2.67;;;7.60;97.30;;;;;;5072509;28;20443;-79
2022/11/29 12:06:41;;;;;;;5.17;3.00;;;7.60;97.30;;;;;;5034135;28;20834;-80
2022/11/29 12:09:18;;;;;;;7.63;4.13;;;7.70;97.30;;;;;;5075030;28;20464;-80
2022/11/29 12:11:48;;;;;;;5.20;4.90;;;7.70;97.30;;;;;;5071991;28;20408;-79
2022/11/29 12:14:41;;;;;;;7.10;4.73;;;7.70;97.30;;;;;;5062639;28;20431;-79
2022/11/29 12:17:26;;;;;;;3.00;2.80;;;7.70;97.30;;;;;;5057802;28;20423;-79
2022/11/29 12:20:08;;;;;;;8.00;2.90;;;7.70;97.30;;;;;;5047360;28;20420;-80
2022/11/29 12:22:42;;;;;;;36.13;4.13;;;7.70;97.30;;;;;;5064371;28;20432;-79
2022/11/29 12:25:16;;;;;;;6.20;4.47;;;7.60;97.30;;;;;;5071904;28;20877;-79
2022/11/29 12:27:41;;;;;;;8.00;4.77;;;7.60;97.30;;;;;;5035343;28;20530;-79
2022/11/29 12:30:13;;;;;;;4.73;3.40;;;7.60;97.30;;;;;;5048797;28;20467;-79
2022/11/29 12:33:01;;;;;;;4.30;4.00;;;7.60;97.30;;;;;;5055975;28;20188;-79
2022/11/29 12:35:35;;;;;;;4.67;4.23;;;7.60;97.30;;;;;;5071293;28;20414;-79
2022/11/29 12:38:15;;;;;;;4.40;2.70;;;7.60;97.30;;;;;;5067086;28;20420;-79
2022/11/29 12:40:50;;;;;;;4.03;3.50;;;7.60;97.30;;;;;;5044291;28;20770;-79
2022/11/29 12:43:45;;;;;;;2.40;1.70;;;7.60;97.30;;;;;;5055192;28;20444;-80
2022/11/29 12:46:19;;;;;;;4.97;4.10;;;7.60;97.30;;;;;;5072812;28;20488;-80
2022/11/29 12:49:08;;;;;;;4.20;2.27;;;7.50;97.30;;;;;;5049385;28;20452;-79
2022/11/29 12:52:01;;;;;;;5.57;4.47;;;7.60;97.30;;;;;;5059766;28;20413;-79
2022/11/29 12:54:36;;;;;;;6.30;3.50;;;7.50;97.30;;;;;;5085719;28;20540;-79
2022/11/29 12:57:11;;;;;;;7.70;3.43;;;7.50;97.30;;;;;;5042882;28;20416;-80
2022/11/29 13:00:04;;;;;;;6.20;2.43;;;7.50;97.30;;;;;;5055339;28;20458;-79
2022/11/29 13:02:38;;;;;;;7.17;4.63;;;7.50;97.30;;;;;;5055447;28;20445;-79
2022/11/29 13:05:15;;;;;;;6.10;2.83;;;7.50;97.30;;;;;;5055247;28;20420;-79
2022/11/29 13:08:06;;;;;;;3.20;2.77;;;7.50;97.30;;;;;;5069103;28;20503;-79
2022/11/29 13:10:46;;;;;;;3.97;2.60;;;7.50;97.30;;;;;;5056026;28;20915;-80
2022/11/29 13:13:20;;;;;;;11.23;4.67;;;7.50;97.30;;;;;;5043751;28;20793;-79
2022/11/29 13:15:52;;;;;;;3.53;2.30;;;7.50;97.30;;;;;;5056400;28;20947;-79
2022/11/29 13:18:36;;;;;;;7.70;3.37;;;7.50;97.30;;;;;;5056331;28;20417;-79
2022/11/29 13:21:36;;;;;;;4.77;4.37;;;7.50;97.30;;;;;;5056748;28;20478;-79
2022/11/29 13:24:07;;;;;;;5.57;4.70;;;7.50;97.30;;;;;;5038688;28;20503;-80
2022/11/29 13:26:35;;;;;;;4.47;2.67;;;7.50;97.30;;;;;;5057531;28;20428;-79
2022/11/29 13:29:02;;;;;;;7.10;2.50;;;7.50;97.30;;;;;;5056809;28;20992;-79
2022/11/29 13:31:28;;;;;;;3.37;3.23;;;7.50;97.30;;;;;;5057925;28;20838;-79
2022/11/29 13:34:06;;;;;;;9.13;4.77;;;7.50;97.30;;;;;;5057711;28;20529;-79
2022/11/29 13:36:56;;;;;;;3.57;2.70;;;7.50;97.30;;;;;;5054204;28;20421;-80
2022/11/29 13:39:45;;;;;;;3.83;3.33;;;7.50;97.30;;;;;;5058892;28;20779;-80
2022/11/29 13:42:30;;;;;;;4.37;2.47;;;7.50;97.30;;;;;;5064257;28;20439;-81
2022/11/29 13:45:15;;;;;;;5.47;5.17;;;7.50;97.30;;;;;;5055595;28;20428;-80
2022/11/29 13:47:51;;;;;;;5.00;4.63;;;7.50;97.30;;;;;;5074093;28;20475;-81
2022/11/29 13:50:43;;;;;;;9.97;3.60;;;7.50;97.30;;;;;;5064302;28;20453;-82
2022/11/29 13:53:21;;;;;;;7.00;5.67;;;7.50;97.30;;;;;;5066744;28;20444;-81
2022/11/29 13:56:00;;;;;;;3.63;2.57;;;7.50;97.30;;;;;;5062158;28;20478;-82